Time;durP1;ratioP1;P1;durP2;ratioP2;P2;SDS_P1;SDS_P2;PMS_P1;PMS_P2;Temp;Humidity;BMP_temperature;BMP_pressure;BME280_temperature;BME280_humidity;BME280_pressure;Samples;Min_cycle;Max_cycle;Signal;HPM_P1;HPM_P2
2022/06/25 00:01:25;;;;;;;14.63;13.37;;;20.30;99.90;;;;;;4988571;28;20427;-84
2022/06/25 00:03:51;;;;;;;14.27;12.95;;;20.30;99.90;;;;;;4989198;28;20454;-82
2022/06/25 00:06:18;;;;;;;14.57;13.27;;;20.30;99.90;;;;;;4987715;28;20389;-85
2022/06/25 00:08:47;;;;;;;15.40;14.00;;;20.10;99.90;;;;;;4988984;28;20483;-84
2022/06/25 00:14:03;;;;;;;15.43;14.07;;;20.10;99.90;;;;;;4985677;28;20743;-84
2022/06/25 00:16:29;;;;;;;16.27;14.77;;;20.00;99.90;;;;;;4986979;28;20779;-82
2022/06/25 00:18:54;;;;;;;16.05;14.75;;;20.00;99.90;;;;;;4989180;28;20393;-84
2022/06/25 00:21:20;;;;;;;16.15;14.65;;;19.90;99.90;;;;;;4988399;28;20481;-84
2022/06/25 00:23:46;;;;;;;16.03;14.63;;;19.90;99.90;;;;;;4987450;28;20405;-83
2022/06/25 00:26:11;;;;;;;15.75;14.35;;;19.70;99.90;;;;;;4988295;28;20879;-86
2022/06/25 00:28:37;;;;;;;15.50;14.20;;;19.60;99.90;;;;;;4986956;28;20419;-83
2022/06/25 00:31:02;;;;;;;15.93;14.47;;;19.60;99.90;;;;;;4987032;28;20420;-85
2022/06/25 00:33:28;;;;;;;15.55;14.25;;;19.60;99.90;;;;;;4989043;28;20400;-84
2022/06/25 00:35:54;;;;;;;16.43;14.77;;;19.60;99.90;;;;;;4988833;28;20898;-85
2022/06/25 00:38:20;;;;;;;16.70;15.20;;;19.60;99.90;;;;;;4988572;28;20490;-83
2022/06/25 00:40:46;;;;;;;16.60;15.10;;;19.50;99.90;;;;;;4990168;28;21039;-83
2022/06/25 00:43:12;;;;;;;16.20;14.90;;;19.50;99.90;;;;;;4990994;28;20435;-86
2022/06/25 00:45:42;;;;;;;16.90;15.20;;;19.50;99.90;;;;;;5006644;28;20479;-84
2022/06/25 00:48:07;;;;;;;17.45;15.85;;;19.50;99.90;;;;;;4992727;28;20834;-84
2022/06/25 00:50:33;;;;;;;16.10;14.73;;;19.40;99.90;;;;;;4992147;28;20412;-84
2022/06/25 00:53:01;;;;;;;17.17;15.68;;;19.40;99.90;;;;;;4991431;28;20403;-84
2022/06/25 00:55:30;;;;;;;17.70;16.13;;;19.30;99.90;;;;;;4992564;28;20391;-85
2022/06/25 00:57:59;;;;;;;16.42;15.02;;;19.30;99.90;;;;;;4989833;28;20539;-83
2022/06/25 01:00:25;;;;;;;17.00;15.60;;;19.30;99.90;;;;;;4991415;28;20404;-85
2022/06/25 01:02:51;;;;;;;17.98;16.38;;;19.30;99.90;;;;;;4990928;28;20433;-83
2022/06/25 01:05:17;;;;;;;17.17;15.57;;;19.30;99.90;;;;;;4991882;28;20454;-85
2022/06/25 01:07:48;;;;;;;17.15;15.65;;;19.40;99.90;;;;;;4991880;28;20372;-86
2022/06/25 01:10:15;;;;;;;16.08;14.75;;;19.30;99.90;;;;;;4991712;28;20423;-86
2022/06/25 01:12:42;;;;;;;17.02;15.63;;;19.30;99.90;;;;;;4991541;28;20396;-82
2022/06/25 01:15:18;;;;;;;16.88;15.48;;;19.30;99.90;;;;;;4989621;28;20452;-84
2022/06/25 01:17:45;;;;;;;17.38;15.98;;;19.30;99.90;;;;;;5001237;28;20389;-84
2022/06/25 01:20:12;;;;;;;17.63;15.97;;;19.30;99.90;;;;;;4989871;28;20463;-84
2022/06/25 01:22:38;;;;;;;18.42;16.83;;;19.20;99.90;;;;;;4989899;28;20400;-85
2022/06/25 01:25:07;;;;;;;18.17;16.58;;;19.10;99.90;;;;;;4990347;28;20385;-85
2022/06/25 01:27:33;;;;;;;18.92;17.15;;;19.10;99.90;;;;;;4990574;28;20969;-85
2022/06/25 01:29:59;;;;;;;18.10;16.30;;;19.10;99.90;;;;;;4991650;28;20447;-84
2022/06/25 01:32:25;;;;;;;17.85;16.17;;;19.00;99.90;;;;;;4990171;28;20424;-82
2022/06/25 01:34:51;;;;;;;18.03;16.50;;;19.00;99.90;;;;;;4988852;28;20399;-84
2022/06/25 01:37:17;;;;;;;17.77;16.27;;;18.90;99.90;;;;;;4991052;28;20396;-85
2022/06/25 01:39:42;;;;;;;17.45;16.05;;;18.90;99.90;;;;;;4989963;28;20401;-83
2022/06/25 01:42:58;;;;;;;17.80;16.30;;;18.90;99.90;;;;;;4989659;28;20463;-85
2022/06/25 01:44:53;;;;;;;18.95;17.25;;;18.90;99.90;;;;;;4990420;28;20400;-85
2022/06/25 01:47:19;;;;;;;18.15;16.65;;;18.90;99.90;;;;;;4990307;28;20751;-85
2022/06/25 01:49:45;;;;;;;19.50;17.77;;;18.80;99.90;;;;;;4989083;28;20432;-86
2022/06/25 01:52:13;;;;;;;20.27;18.48;;;18.80;99.90;;;;;;4989766;28;20393;-82
2022/06/25 01:54:38;;;;;;;19.52;17.77;;;18.70;99.90;;;;;;4990001;28;20397;-85
2022/06/25 01:57:04;;;;;;;19.63;17.83;;;18.60;99.90;;;;;;4990720;28;20391;-82
2022/06/25 01:59:30;;;;;;;19.13;17.27;;;18.60;99.90;;;;;;4989642;28;20423;-85
2022/06/25 02:01:56;;;;;;;18.63;17.13;;;18.50;99.90;;;;;;4990150;28;20472;-87
2022/06/25 02:04:21;;;;;;;19.20;17.40;;;18.50;99.90;;;;;;4989405;28;20445;-84
2022/06/25 02:06:47;;;;;;;19.43;17.73;;;18.40;99.90;;;;;;4990713;28;20393;-83
2022/06/25 02:09:12;;;;;;;20.17;18.38;;;18.50;99.90;;;;;;4991152;28;20377;-86
2022/06/25 02:11:38;;;;;;;20.13;18.33;;;18.40;99.90;;;;;;4988794;28;20396;-83
2022/06/25 02:14:04;;;;;;;20.30;18.48;;;18.30;99.90;;;;;;4989162;28;20932;-85
2022/06/25 02:16:29;;;;;;;18.63;16.97;;;18.30;99.90;;;;;;4990505;28;20499;-85
2022/06/25 02:18:55;;;;;;;18.95;17.10;;;18.30;99.90;;;;;;4988345;28;20426;-83
2022/06/25 02:21:20;;;;;;;19.73;18.13;;;18.30;99.90;;;;;;4990121;28;20733;-86
2022/06/25 02:23:46;;;;;;;19.20;17.60;;;18.20;99.90;;;;;;4990178;28;20451;-83
2022/06/25 02:26:12;;;;;;;19.58;17.98;;;18.10;99.90;;;;;;4989864;28;20389;-82
2022/06/25 02:28:37;;;;;;;20.37;18.57;;;18.10;99.90;;;;;;4990335;28;20488;-85
2022/06/25 02:31:03;;;;;;;20.45;18.65;;;18.10;99.90;;;;;;4989054;28;20930;-82
2022/06/25 02:33:28;;;;;;;19.87;18.17;;;18.10;99.90;;;;;;4989819;28;20409;-84
2022/06/25 02:35:54;;;;;;;19.98;18.10;;;18.10;99.90;;;;;;4989817;28;20373;-82
2022/06/25 02:38:20;;;;;;;19.17;17.57;;;18.10;99.90;;;;;;4989438;28;20902;-83
2022/06/25 02:40:47;;;;;;;20.55;18.67;;;18.00;99.90;;;;;;4989087;28;20389;-84
2022/06/25 02:43:13;;;;;;;19.85;18.13;;;18.10;99.90;;;;;;4988142;28;20417;-84
2022/06/25 02:45:38;;;;;;;19.63;17.83;;;18.00;99.90;;;;;;4990061;28;20478;-85
2022/06/25 02:48:04;;;;;;;20.42;18.52;;;18.00;99.90;;;;;;4989364;28;20404;-83
2022/06/25 02:50:30;;;;;;;20.40;18.40;;;18.00;99.90;;;;;;5005168;28;20778;-85
2022/06/25 02:52:56;;;;;;;19.03;17.33;;;18.00;99.90;;;;;;4990313;28;20389;-86
2022/06/25 02:58:54;;;;;;;23.63;20.10;;;18.00;99.90;;;;;;4988551;28;20428;-84
2022/06/25 03:00:52;;;;;;;19.35;17.52;;;18.00;99.90;;;;;;4989805;28;20551;-82
2022/06/25 03:03:17;;;;;;;20.43;18.60;;;18.00;99.90;;;;;;4989296;28;20905;-85
2022/06/25 03:05:43;;;;;;;19.65;17.98;;;17.90;99.90;;;;;;4988893;28;20401;-86
2022/06/25 03:08:09;;;;;;;20.97;19.17;;;17.90;99.90;;;;;;4990121;28;20389;-86
2022/06/25 03:10:35;;;;;;;20.95;19.05;;;17.90;99.90;;;;;;4989905;28;20405;-85
2022/06/25 03:13:00;;;;;;;20.13;18.33;;;17.90;99.90;;;;;;4988641;28;20483;-82
2022/06/25 03:15:26;;;;;;;19.95;18.15;;;17.90;99.90;;;;;;4989937;28;20903;-86
2022/06/25 03:17:51;;;;;;;19.93;18.23;;;17.90;99.90;;;;;;4990103;28;20459;-87
2022/06/25 03:20:17;;;;;;;20.85;18.95;;;17.90;99.90;;;;;;4988945;28;20894;-83
2022/06/25 03:22:42;;;;;;;18.67;17.17;;;18.00;99.90;;;;;;4988269;28;20396;-83
2022/06/25 03:25:08;;;;;;;19.33;17.57;;;18.00;99.90;;;;;;4987897;28;20389;-86
2022/06/25 03:27:34;;;;;;;17.98;16.45;;;18.10;99.90;;;;;;4988431;28;20440;-86
2022/06/25 03:29:59;;;;;;;19.45;17.75;;;18.10;99.90;;;;;;4988258;28;20934;-86
2022/06/25 03:32:25;;;;;;;19.43;17.73;;;18.10;99.90;;;;;;4988509;28;20428;-86
2022/06/25 03:34:51;;;;;;;19.98;17.95;;;18.20;99.90;;;;;;4988322;28;20409;-88
2022/06/25 03:37:16;;;;;;;19.20;17.42;;;18.30;99.90;;;;;;4989683;28;20463;-86
2022/06/25 03:39:42;;;;;;;20.48;18.67;;;18.40;99.90;;;;;;4988380;28;20385;-84
2022/06/25 03:42:08;;;;;;;18.53;16.90;;;18.40;99.90;;;;;;4989767;28;20413;-85
2022/06/25 03:44:33;;;;;;;20.07;18.23;;;18.40;99.90;;;;;;4987472;28;20455;-83
2022/06/25 03:46:59;;;;;;;20.15;18.42;;;18.40;99.90;;;;;;4987810;28;20440;-84
2022/06/25 03:49:25;;;;;;;21.90;19.95;;;18.50;99.90;;;;;;4988077;28;20935;-83
2022/06/25 03:51:51;;;;;;;23.33;21.23;;;18.50;99.90;;;;;;4989820;28;20451;-84
2022/06/25 03:54:17;;;;;;;22.40;20.38;;;18.50;99.90;;;;;;4988970;28;20393;-83
2022/06/25 03:56:42;;;;;;;20.60;18.60;;;18.50;99.90;;;;;;4986972;28;20484;-84
2022/06/25 03:59:08;;;;;;;22.60;20.70;;;18.40;99.90;;;;;;4987839;28;20476;-82
2022/06/25 04:01:34;;;;;;;21.50;19.50;;;18.50;99.90;;;;;;4989233;28;20393;-85
2022/06/25 04:03:59;;;;;;;20.20;18.40;;;18.60;99.90;;;;;;4988452;28;20829;-85
2022/06/25 04:06:25;;;;;;;21.25;19.42;;;18.70;99.90;;;;;;4989284;28;20384;-87
2022/06/25 04:08:51;;;;;;;20.77;18.87;;;18.80;99.90;;;;;;4988350;28;20548;-86
2022/06/25 04:11:17;;;;;;;19.40;17.60;;;18.90;99.90;;;;;;4987668;28;20423;-84
2022/06/25 04:13:42;;;;;;;19.60;17.80;;;18.90;99.90;;;;;;5005015;28;20439;-84
2022/06/25 04:16:08;;;;;;;19.15;17.45;;;19.00;99.90;;;;;;4993136;28;20882;-87
2022/06/25 04:18:34;;;;;;;19.57;17.67;;;19.10;99.90;;;;;;4992146;28;20396;-85
2022/06/25 04:20:59;;;;;;;20.45;18.45;;;19.20;99.90;;;;;;4993634;28;20387;-85
2022/06/25 04:23:27;;;;;;;18.67;16.97;;;19.30;99.90;;;;;;4993103;28;20392;-86
2022/06/25 04:25:52;;;;;;;17.50;16.00;;;19.30;99.90;;;;;;4993377;28;20385;-84
2022/06/25 04:31:02;;;;;;;21.30;19.40;;;19.60;99.90;;;;;;4993362;28;20419;-85
2022/06/25 04:33:28;;;;;;;21.73;19.83;;;19.70;99.90;;;;;;4992843;28;20400;-84
2022/06/25 04:35:53;;;;;;;20.55;18.70;;;19.90;99.90;;;;;;4993831;28;20423;-86
2022/06/25 04:38:19;;;;;;;19.27;17.50;;;20.10;99.90;;;;;;4994296;28;20380;-87
2022/06/25 04:40:45;;;;;;;20.10;18.10;;;20.20;99.90;;;;;;4992620;28;20381;-83
2022/06/25 04:43:10;;;;;;;22.40;20.20;;;20.40;99.90;;;;;;4997893;28;20392;-83
2022/06/25 04:45:36;;;;;;;20.93;19.00;;;20.60;99.90;;;;;;4990348;28;20417;-83
2022/06/25 04:48:03;;;;;;;23.65;21.17;;;20.90;99.90;;;;;;4992302;28;20384;-83
2022/06/25 04:50:29;;;;;;;21.65;19.65;;;21.20;99.90;;;;;;4991463;28;20425;-83
2022/06/25 04:52:55;;;;;;;23.98;19.65;;;21.40;99.90;;;;;;4991228;28;20385;-83
2022/06/25 04:55:21;;;;;;;23.30;21.00;;;21.60;99.90;;;;;;4993111;28;20560;-85
2022/06/25 04:57:46;;;;;;;23.50;21.10;;;21.70;99.90;;;;;;4990685;28;20392;-83
2022/06/25 05:00:12;;;;;;;23.27;20.98;;;21.80;99.90;;;;;;4991772;28;20396;-83
2022/06/25 05:02:39;;;;;;;26.23;23.52;;;22.00;99.90;;;;;;4990980;28;20512;-84
2022/06/25 05:05:06;;;;;;;28.02;25.20;;;22.20;99.90;;;;;;4992854;28;20397;-82
2022/06/25 05:07:31;;;;;;;26.80;24.03;;;22.50;99.90;;;;;;4995238;28;20404;-84
2022/06/25 05:09:57;;;;;;;29.23;25.50;;;22.80;99.90;;;;;;4993622;28;20413;-82
2022/06/25 05:15:08;;;;;;;25.90;23.20;;;23.30;99.90;;;;;;4993950;28;20548;-84
2022/06/25 05:17:34;;;;;;;31.55;23.85;;;23.70;99.90;;;;;;4995032;28;20815;-86
2022/06/25 05:20:00;;;;;;;32.08;24.58;;;24.30;99.90;;;;;;4995671;28;20475;-83
2022/06/25 05:22:26;;;;;;;28.02;24.35;;;24.70;99.90;;;;;;4996029;28;20574;-83
2022/06/25 05:24:51;;;;;;;25.63;23.03;;;25.20;99.90;;;;;;4995734;28;20807;-84
2022/06/25 05:27:17;;;;;;;27.70;24.77;;;25.30;99.90;;;;;;4997213;28;20396;-84
2022/06/25 05:29:43;;;;;;;26.83;24.17;;;25.30;99.90;;;;;;4993040;28;20412;-85
2022/06/25 05:32:08;;;;;;;28.90;25.40;;;25.10;99.90;;;;;;4996500;28;20395;-82
2022/06/25 05:34:34;;;;;;;28.02;25.08;;;25.20;99.90;;;;;;4995877;28;20895;-84
2022/06/25 05:37:00;;;;;;;26.63;23.85;;;25.30;99.90;;;;;;4997444;28;20389;-83
2022/06/25 05:39:25;;;;;;;26.33;23.43;;;25.30;99.90;;;;;;4996634;28;20392;-82
2022/06/25 05:41:51;;;;;;;27.60;24.70;;;25.10;99.90;;;;;;4994960;28;20886;-84
2022/06/25 05:44:16;;;;;;;25.77;23.00;;;24.90;99.90;;;;;;4995563;28;20413;-84
2022/06/25 05:46:42;;;;;;;26.48;23.75;;;24.70;99.90;;;;;;4996679;28;20467;-87
2022/06/25 05:49:08;;;;;;;26.00;23.20;;;24.60;99.90;;;;;;4995337;28;20389;-86
2022/06/25 05:51:33;;;;;;;27.20;24.03;;;24.60;99.90;;;;;;4996769;28;20413;-85
2022/06/25 05:53:59;;;;;;;25.20;22.63;;;24.50;99.90;;;;;;4995044;28;20401;-87
2022/06/25 05:56:24;;;;;;;25.05;22.45;;;24.50;99.90;;;;;;4995366;28;20404;-84
2022/06/25 05:58:50;;;;;;;24.93;22.27;;;24.60;99.90;;;;;;4996178;28;20894;-84
2022/06/25 06:01:15;;;;;;;29.53;23.23;;;24.70;99.90;;;;;;4995752;28;20566;-83
2022/06/25 06:03:41;;;;;;;22.95;20.55;;;24.80;99.90;;;;;;4997181;28;20451;-86
2022/06/25 06:06:07;;;;;;;22.95;20.65;;;25.20;99.90;;;;;;4993787;28;20404;-85
2022/06/25 06:08:33;;;;;;;21.90;19.60;;;25.70;99.90;;;;;;4997901;28;20396;-85
2022/06/25 06:10:59;;;;;;;19.30;17.05;;;26.30;99.90;;;;;;4992593;28;20412;-85
2022/06/25 06:13:24;;;;;;;18.97;16.17;;;26.70;99.90;;;;;;4994216;28;20416;-87
2022/06/25 06:15:50;;;;;;;18.37;15.60;;;27.00;99.90;;;;;;4994834;28;20415;-85
2022/06/25 06:18:15;;;;;;;18.00;14.95;;;27.50;99.90;;;;;;4992080;28;20409;-85
2022/06/25 06:20:41;;;;;;;17.90;15.93;;;28.10;99.90;;;;;;4992271;28;20393;-86
2022/06/25 06:23:07;;;;;;;18.53;16.67;;;28.30;99.90;;;;;;4993297;28;20403;-85
2022/06/25 06:25:33;;;;;;;19.63;16.93;;;28.70;99.90;;;;;;4991959;28;20400;-87
2022/06/25 06:27:59;;;;;;;20.17;15.85;;;28.80;99.90;;;;;;4993675;28;20484;-84
2022/06/25 06:30:25;;;;;;;18.63;16.42;;;28.90;99.90;;;;;;4991018;28;21254;-85
2022/06/25 06:32:51;;;;;;;17.60;15.77;;;28.80;99.90;;;;;;4991158;28;20397;-87
2022/06/25 06:35:16;;;;;;;17.75;15.43;;;28.90;99.90;;;;;;4991541;28;20460;-87
2022/06/25 06:37:42;;;;;;;17.77;16.08;;;29.20;99.90;;;;;;4990198;28;20744;-86
2022/06/25 06:40:08;;;;;;;16.92;15.20;;;29.10;99.90;;;;;;5006327;28;21379;-87
2022/06/25 06:42:37;;;;;;;16.05;14.35;;;29.10;99.90;;;;;;4987565;28;20445;-87
2022/06/25 06:45:03;;;;;;;16.70;15.00;;;29.00;99.90;;;;;;4990873;28;20403;-86
2022/06/25 06:47:29;;;;;;;15.88;14.27;;;28.80;99.90;;;;;;4990171;28;20386;-86
2022/06/25 06:49:54;;;;;;;16.40;14.27;;;28.90;99.90;;;;;;4989116;28;20922;-87
2022/06/25 06:52:21;;;;;;;16.67;14.63;;;29.00;99.90;;;;;;4989858;28;20385;-87
2022/06/25 06:54:47;;;;;;;17.33;15.50;;;29.10;99.90;;;;;;4989465;28;20397;-86
2022/06/25 06:57:12;;;;;;;17.95;15.38;;;29.10;99.90;;;;;;4990716;28;20456;-84
2022/06/25 06:59:38;;;;;;;16.55;14.77;;;28.90;99.90;;;;;;4989422;28;20385;-87
2022/06/25 07:02:04;;;;;;;20.03;16.63;;;29.00;99.90;;;;;;4989306;28;20464;-85
2022/06/25 07:04:29;;;;;;;16.02;14.30;;;29.00;99.90;;;;;;4990318;28;20496;-86
2022/06/25 07:06:55;;;;;;;15.63;13.88;;;29.00;99.90;;;;;;4989745;28;20828;-84
2022/06/25 07:09:21;;;;;;;15.80;14.20;;;29.30;99.90;;;;;;4990432;28;20530;-85
2022/06/25 07:11:47;;;;;;;15.75;14.00;;;29.70;99.90;;;;;;4988517;28;20914;-85
2022/06/25 07:14:13;;;;;;;15.17;13.50;;;;;;;;;;4989060;28;20424;-85
2022/06/25 07:16:39;;;;;;;14.68;13.18;;;30.50;99.90;;;;;;4988562;28;20768;-85
2022/06/25 07:19:05;;;;;;;15.43;13.55;;;30.90;99.90;;;;;;4988580;28;20427;-86
2022/06/25 07:21:31;;;;;;;15.20;13.52;;;31.20;99.90;;;;;;4988040;28;20448;-84
2022/06/25 07:23:57;;;;;;;16.63;13.47;;;31.30;99.90;;;;;;4988966;28;20439;-85
2022/06/25 07:26:23;;;;;;;15.68;14.10;;;31.30;99.90;;;;;;4987709;28;20750;-85
2022/06/25 07:28:52;;;;;;;22.88;13.52;;;31.30;99.90;;;;;;4989464;28;20616;-85
2022/06/25 07:31:18;;;;;;;14.75;12.52;;;31.30;99.90;;;;;;4989032;28;20471;-86
2022/06/25 07:33:44;;;;;;;13.60;12.23;;;31.50;99.90;;;;;;4990107;28;20389;-86
2022/06/25 07:36:09;;;;;;;14.30;12.47;;;31.60;99.70;;;;;;4988304;28;20432;-85
2022/06/25 07:38:37;;;;;;;13.57;12.10;;;31.60;99.50;;;;;;4989541;28;20384;-85
2022/06/25 07:41:04;;;;;;;14.35;12.10;;;31.60;99.10;;;;;;4989329;28;20416;-86
2022/06/25 07:43:30;;;;;;;13.02;11.77;;;31.60;99.90;;;;;;4988276;28;20392;-86
2022/06/25 07:45:57;;;;;;;14.17;12.63;;;31.50;98.90;;;;;;4990217;28;20861;-86
2022/06/25 07:48:22;;;;;;;23.70;12.68;;;31.20;99.80;;;;;;4988196;28;20425;-85
2022/06/25 07:53:32;;;;;;;12.70;11.45;;;30.60;98.80;;;;;;4989178;28;20411;-85
2022/06/25 07:55:58;;;;;;;12.43;11.00;;;30.30;98.60;;;;;;4988008;28;20397;-85
2022/06/25 07:58:23;;;;;;;61.43;16.80;;;30.10;99.50;;;;;;4987670;28;20400;-85
2022/06/25 08:00:50;;;;;;;13.60;11.73;;;30.10;99.80;;;;;;4987336;28;20991;-86
2022/06/25 08:03:16;;;;;;;13.75;12.07;;;30.20;98.40;;;;;;4989357;28;20779;-84
2022/06/25 08:05:41;;;;;;;13.57;11.23;;;30.00;98.10;;;;;;4986964;28;20396;-84
2022/06/25 08:08:07;;;;;;;12.03;10.83;;;29.50;99.30;;;;;;4987435;28;20401;-84
2022/06/25 08:10:33;;;;;;;12.07;10.87;;;29.40;99.10;;;;;;4988933;28;20782;-86
2022/06/25 08:12:59;;;;;;;12.82;11.10;;;29.40;99.90;;;;;;4989039;28;20879;-86
2022/06/25 08:15:25;;;;;;;12.43;11.10;;;29.70;99.90;;;;;;4987131;28;20866;-85
2022/06/25 08:17:51;;;;;;;13.85;10.18;;;30.20;98.50;;;;;;4990145;28;20385;-85
2022/06/25 08:20:17;;;;;;;11.35;9.93;;;30.60;98.00;;;;;;4989554;28;20401;-85
2022/06/25 08:22:42;;;;;;;10.57;9.52;;;30.50;98.60;;;;;;4989098;28;20404;-85
2022/06/25 08:25:09;;;;;;;8.85;8.00;;;;;;;;;;4988210;28;20440;-85
2022/06/25 08:27:44;;;;;;;11.20;9.55;;;30.90;98.20;;;;;;4987710;28;20377;-85
2022/06/25 08:30:10;;;;;;;11.03;10.03;;;31.00;97.80;;;;;;4989908;28;20397;-86
2022/06/25 08:32:36;;;;;;;12.63;10.18;;;30.60;97.40;;;;;;4987565;28;20767;-85
2022/06/25 08:35:02;;;;;;;11.35;10.25;;;30.30;98.00;;;;;;4988536;28;20388;-85
2022/06/25 08:37:28;;;;;;;12.90;9.57;;;29.80;97.60;;;;;;4987056;28;20397;-85
2022/06/25 08:39:53;;;;;;;10.97;9.87;;;29.60;98.60;;;;;;4987816;28;20392;-85
2022/06/25 08:42:19;;;;;;;12.05;10.88;;;29.40;99.40;;;;;;4987258;28;20448;-86
2022/06/25 08:44:44;;;;;;;13.32;11.85;;;29.00;99.10;;;;;;4987759;28;20487;-86
2022/06/25 08:47:11;;;;;;;12.10;10.90;;;28.90;99.70;;;;;;4988872;28;20878;-85
2022/06/25 08:49:37;;;;;;;13.13;11.15;;;28.80;99.90;;;;;;4988742;28;20460;-85
2022/06/25 08:52:04;;;;;;;13.07;11.68;;;28.80;99.90;;;;;;4989206;28;20400;-85
2022/06/25 08:54:33;;;;;;;15.52;11.65;;;28.70;99.90;;;;;;4989334;28;20416;-86
2022/06/25 08:56:59;;;;;;;12.20;10.90;;;28.60;99.90;;;;;;4987968;28;20378;-87
2022/06/25 08:59:25;;;;;;;12.37;11.07;;;28.60;99.90;;;;;;4987941;28;20455;-85
2022/06/25 09:01:51;;;;;;;12.73;11.35;;;28.60;99.90;;;;;;4989664;28;20401;-85
2022/06/25 09:04:16;;;;;;;13.03;10.93;;;28.50;99.90;;;;;;4992029;28;20393;-84
2022/06/25 09:06:43;;;;;;;12.00;10.30;;;28.50;99.90;;;;;;4993418;28;20887;-84
2022/06/25 09:09:10;;;;;;;10.93;9.77;;;28.70;99.90;;;;;;4991945;28;20880;-85
2022/06/25 09:12:05;;;;;;;10.77;9.23;;;29.00;99.90;;;;;;4991212;28;20929;-86
2022/06/25 09:14:32;;;;;;;11.35;8.98;;;29.20;99.90;;;;;;4991678;28;20403;-87
2022/06/25 09:17:08;;;;;;;20.70;10.73;;;29.40;99.90;;;;;;4992942;28;20381;-87
2022/06/25 09:19:39;;;;;;;11.07;9.93;;;29.50;99.90;;;;;;4992126;28;20391;-85
2022/06/25 09:22:10;;;;;;;11.25;9.27;;;29.40;99.80;;;;;;4992239;28;20499;-85
2022/06/25 09:24:47;;;;;;;9.98;8.80;;;29.50;99.90;;;;;;4991772;28;20393;-86
2022/06/25 09:27:16;;;;;;;10.30;9.18;;;29.60;99.90;;;;;;4991030;28;20392;-86
2022/06/25 09:29:44;;;;;;;9.65;8.75;;;29.70;99.90;;;;;;4992264;28;20393;-85
2022/06/25 09:32:11;;;;;;;10.18;8.43;;;29.80;99.50;;;;;;4991548;28;20392;-86
2022/06/25 09:34:38;;;;;;;9.18;7.47;;;29.60;99.00;;;;;;4992279;28;20392;-86
2022/06/25 09:37:26;;;;;;;8.30;7.50;;;29.60;99.50;;;;;;4990668;28;20404;-86
2022/06/25 09:39:54;;;;;;;8.60;7.10;;;29.60;98.80;;;;;;4991799;28;20401;-85
2022/06/25 09:42:27;;;;;;;10.15;7.53;;;29.60;99.70;;;;;;4991007;28;20907;-87
2022/06/25 09:45:09;;;;;;;7.75;6.95;;;29.90;99.30;;;;;;4991122;28;20455;-86
2022/06/25 09:47:40;;;;;;;8.20;7.20;;;30.00;98.80;;;;;;4990798;28;20410;-86
2022/06/25 09:50:10;;;;;;;7.72;6.93;;;30.30;98.40;;;;;;4984350;28;20455;-85
2022/06/25 09:52:37;;;;;;;10.40;8.02;;;30.50;98.30;;;;;;4989756;28;20420;-86
2022/06/25 09:55:04;;;;;;;8.90;7.93;;;30.60;97.50;;;;;;4990021;28;20393;-88
2022/06/25 09:57:34;;;;;;;10.73;7.90;;;30.80;97.60;;;;;;4991563;28;20867;-85
2022/06/25 10:00:00;;;;;;;8.18;7.32;;;30.90;97.70;;;;;;4991657;28;20488;-86
2022/06/25 10:02:27;;;;;;;11.85;6.85;;;31.10;97.50;;;;;;4991551;28;20436;-85
2022/06/25 10:04:57;;;;;;;7.90;7.00;;;31.20;97.60;;;;;;4993314;28;20798;-87
2022/06/25 10:07:59;;;;;;;8.27;7.10;;;31.30;96.80;;;;;;4995105;28;20411;-85
2022/06/25 10:10:17;;;;;;;10.02;6.95;;;31.30;96.70;;;;;;4993943;28;20894;-85
2022/06/25 10:12:44;;;;;;;7.80;6.47;;;31.20;95.50;;;;;;4993540;28;20822;-85
2022/06/25 10:15:11;;;;;;;9.85;6.47;;;31.20;97.10;;;;;;4992538;28;20392;-87
2022/06/25 10:17:37;;;;;;;7.78;6.97;;;;;;;;;;4992232;28;20483;-86
2022/06/25 10:20:04;;;;;;;7.68;6.55;;;;;;;;;;4990253;28;20864;-85
2022/06/25 10:22:30;;;;;;;6.80;5.50;;;;;;;;;;4999413;28;20492;-85
2022/06/25 10:24:58;;;;;;;6.35;5.38;;;;;;;;;;4983733;28;20460;-87
2022/06/25 10:27:24;;;;;;;7.60;6.03;;;31.40;95.10;;;;;;4989209;28;20377;-86
2022/06/25 10:29:57;;;;;;;7.28;5.90;;;31.50;95.20;;;;;;4987840;28;20742;-87
2022/06/25 10:32:24;;;;;;;7.35;6.25;;;31.80;96.10;;;;;;4982858;28;20405;-87
2022/06/25 10:35:00;;;;;;;9.40;6.55;;;31.90;95.10;;;;;;4988111;28;20415;-86
2022/06/25 10:37:26;;;;;;;7.07;4.80;;;32.30;94.90;;;;;;5004123;28;20458;-87
2022/06/25 10:39:56;;;;;;;6.20;5.00;;;32.60;92.80;;;;;;5003106;28;20503;-87
2022/06/25 10:45:12;;;;;;;6.78;5.80;;;32.50;93.20;;;;;;4988921;28;20540;-86
2022/06/25 10:47:40;;;;;;;8.57;5.30;;;32.60;93.50;;;;;;4988791;28;20435;-87
2022/06/25 10:50:21;;;;;;;6.65;5.50;;;32.70;93.10;;;;;;4999965;28;20413;-86
2022/06/25 10:53:05;;;;;;;8.27;5.40;;;32.30;92.70;;;;;;4986882;28;20416;-85
2022/06/25 10:55:35;;;;;;;6.55;5.85;;;31.90;92.50;;;;;;5003572;28;20397;-88
2022/06/25 10:58:43;;;;;;;7.35;5.75;;;31.50;93.50;;;;;;4987417;28;20890;-86
2022/06/25 11:01:19;;;;;;;6.60;5.97;;;31.20;94.60;;;;;;4965617;28;20392;-86
2022/06/25 11:03:45;;;;;;;6.20;5.10;;;31.20;94.90;;;;;;4983947;28;20432;-87
2022/06/25 11:06:18;;;;;;;13.25;6.55;;;31.30;94.70;;;;;;4985496;28;20784;-88
2022/06/25 11:08:44;;;;;;;7.88;6.43;;;31.50;94.90;;;;;;4983744;28;20500;-88
2022/06/25 11:11:10;;;;;;;9.00;6.65;;;31.70;94.00;;;;;;4989458;28;20396;-87
2022/06/25 11:13:40;;;;;;;8.00;6.43;;;32.10;93.40;;;;;;4985785;28;20431;-86
2022/06/25 11:16:17;;;;;;;7.25;6.07;;;32.20;92.20;;;;;;4987525;28;20393;-88
2022/06/25 11:18:53;;;;;;;7.63;6.07;;;32.30;93.30;;;;;;4985748;28;20385;-88
2022/06/25 11:21:36;;;;;;;7.47;6.40;;;32.70;92.50;;;;;;5002448;28;20476;-87
2022/06/25 11:24:06;;;;;;;8.40;6.00;;;32.90;92.40;;;;;;4986900;28;20404;-86
2022/06/25 11:29:28;;;;;;;7.13;5.82;;;33.20;91.70;;;;;;4986727;28;20424;-85
2022/06/25 11:31:55;;;;;;;7.28;5.97;;;33.20;92.30;;;;;;4986507;28;20456;-88
2022/06/25 11:34:22;;;;;;;7.00;6.20;;;33.30;92.80;;;;;;4987492;28;20464;-87
2022/06/25 11:37:00;;;;;;;12.95;6.70;;;33.50;91.90;;;;;;4986165;28;20385;-87
2022/06/25 11:39:27;;;;;;;6.65;6.05;;;33.40;90.10;;;;;;4985022;28;20815;-88
2022/06/25 11:41:53;;;;;;;6.85;6.20;;;33.20;91.90;;;;;;4988725;28;20530;-87
2022/06/25 11:44:19;;;;;;;8.45;6.63;;;32.60;90.40;;;;;;4987575;28;20903;-85
2022/06/25 11:46:47;;;;;;;8.00;6.20;;;32.30;91.70;;;;;;4987999;28;20416;-87
2022/06/25 11:49:13;;;;;;;6.82;6.13;;;32.20;92.10;;;;;;4986559;28;20439;-85
2022/06/25 11:51:56;;;;;;;6.97;5.80;;;32.20;93.00;;;;;;4986912;28;20420;-88
2022/06/25 11:54:24;;;;;;;8.35;6.10;;;32.10;92.60;;;;;;4987105;28;20957;-85
2022/06/25 11:56:55;;;;;;;7.88;6.00;;;31.80;92.10;;;;;;4986263;28;20894;-87
2022/06/25 11:59:30;;;;;;;5.90;5.20;;;31.20;92.20;;;;;;4988751;28;20388;-86
2022/06/25 12:01:56;;;;;;;8.13;5.93;;;30.70;93.00;;;;;;4984608;28;20428;-86
2022/06/25 12:04:23;;;;;;;7.53;5.43;;;30.30;93.00;;;;;;4986911;28;20438;-86
2022/06/25 12:06:49;;;;;;;6.65;5.95;;;29.80;93.10;;;;;;4988478;28;21197;-86
2022/06/25 12:09:20;;;;;;;6.18;5.57;;;29.80;93.60;;;;;;4983471;28;20451;-86
2022/06/25 12:11:52;;;;;;;8.52;5.78;;;29.80;94.10;;;;;;4986724;28;20413;-87
2022/06/25 12:14:28;;;;;;;6.50;5.80;;;29.70;93.90;;;;;;4987208;28;20419;-85
2022/06/25 12:16:54;;;;;;;6.13;5.53;;;29.70;93.20;;;;;;4987031;28;20439;-86
2022/06/25 12:19:22;;;;;;;7.53;5.55;;;29.80;94.20;;;;;;4987883;28;20377;-85
2022/06/25 12:21:48;;;;;;;5.80;5.20;;;30.10;93.20;;;;;;4999834;28;20401;-84
2022/06/25 12:24:16;;;;;;;5.70;5.10;;;30.30;92.50;;;;;;4984600;28;20428;-87
2022/06/25 12:26:49;;;;;;;7.47;5.10;;;30.40;92.70;;;;;;4986867;28;20479;-87
2022/06/25 12:29:18;;;;;;;6.50;4.95;;;30.50;93.40;;;;;;4998604;28;20396;-86
2022/06/25 12:31:59;;;;;;;5.35;4.85;;;30.60;92.80;;;;;;4987118;28;20405;-86
2022/06/25 12:34:26;;;;;;;5.38;4.78;;;30.60;92.20;;;;;;4987549;28;20377;-84
2022/06/25 12:36:53;;;;;;;6.05;4.93;;;30.40;92.50;;;;;;4991047;28;20439;-86
2022/06/25 12:39:34;;;;;;;7.13;5.10;;;30.40;93.70;;;;;;4991924;28;20403;-86
2022/06/25 12:42:12;;;;;;;6.10;4.90;;;30.50;93.10;;;;;;4988552;28;20384;-86
2022/06/25 12:44:43;;;;;;;16.37;5.63;;;30.60;93.60;;;;;;4988957;28;20402;-87
2022/06/25 12:47:14;;;;;;;6.63;4.90;;;30.80;93.30;;;;;;4987488;28;20423;-87
2022/06/25 12:49:44;;;;;;;7.53;5.18;;;31.20;93.40;;;;;;4991767;28;20722;-86
2022/06/25 12:52:11;;;;;;;5.70;5.07;;;31.50;91.70;;;;;;5003018;28;20396;-85
2022/06/25 12:54:48;;;;;;;5.00;4.50;;;31.50;91.30;;;;;;5005097;28;20452;-88